Time;durP1;ratioP1;P1;durP2;ratioP2;P2;SDS_P1;SDS_P2;PMS_P1;PMS_P2;Temp;Humidity;BMP_temperature;BMP_pressure;BME280_temperature;BME280_humidity;BME280_pressure;Samples;Min_cycle;Max_cycle;Signal;HPM_P1;HPM_P2
2023/06/02 00:01:31;;;;;;;6.85;5.43;;;;;;;14.50;100.00;63488.41;5112921;28;20247;-76
2023/06/02 00:03:59;;;;;;;6.40;5.82;;;;;;;14.58;100.00;63501.84;5116849;27;20196;-75
2023/06/02 00:06:30;;;;;;;5.30;4.90;;;;;;;14.59;100.00;63503.41;5107035;28;20310;-76
2023/06/02 00:08:58;;;;;;;5.80;5.22;;;;;;;14.62;100.00;63509.09;5107136;28;20197;-76
2023/06/02 00:11:26;;;;;;;7.35;5.20;;;;;;;14.62;100.00;63508.56;5120169;28;20226;-75
2023/06/02 00:13:55;;;;;;;6.00;5.10;;;;;;;14.62;100.00;63508.56;5125061;28;20206;-74
2023/06/02 00:16:22;;;;;;;7.55;4.70;;;;;;;14.70;100.00;63519.44;5130327;28;20226;-75
2023/06/02 00:18:52;;;;;;;5.47;4.95;;;;;;;14.42;100.00;63485.75;5125184;28;20191;-77
2023/06/02 00:21:20;;;;;;;5.78;5.28;;;;;;;14.68;100.00;63512.25;5122907;28;20266;-76
2023/06/02 00:23:47;;;;;;;5.60;5.13;;;;;;;14.72;100.00;63524.59;5107120;28;20492;-75
2023/06/02 00:26:14;;;;;;;4.75;4.38;;;;;;;14.69;100.00;63513.28;5107365;28;20220;-76
2023/06/02 00:28:42;;;;;;;5.80;5.30;;;;;;;14.78;100.00;63525.19;5106329;28;20282;-76
2023/06/02 00:31:11;;;;;;;8.90;4.82;;;;;;;14.79;100.00;63528.78;5116406;28;20204;-76
2023/06/02 00:33:38;;;;;;;5.18;4.78;;;;;;;14.76;100.00;63523.63;5107741;28;20196;-76
2023/06/02 00:36:05;;;;;;;7.68;5.38;;;;;;;14.77;100.00;63526.72;5106797;28;20202;-76
2023/06/02 00:38:32;;;;;;;5.07;4.65;;;;;;;14.76;100.00;63520.53;5105521;28;20204;-76
2023/06/02 00:40:59;;;;;;;6.15;5.15;;;;;;;14.78;100.00;63525.19;5106901;28;20235;-76
2023/06/02 00:43:26;;;;;;;5.78;5.13;;;;;;;14.77;100.00;63526.72;5107456;28;20196;-76
2023/06/02 00:45:53;;;;;;;5.05;4.65;;;;;;;14.72;100.00;63518.97;5104782;28;20192;-76
2023/06/02 00:48:22;;;;;;;8.98;5.43;;;;;;;14.72;100.00;63518.97;5124482;28;20405;-76
2023/06/02 00:50:49;;;;;;;5.43;4.85;;;;;;;14.71;100.00;63520.47;5127598;28;20195;-76
2023/06/02 00:53:17;;;;;;;5.88;4.85;;;;;;;14.73;100.00;63520.00;5126882;28;20211;-76
2023/06/02 00:55:45;;;;;;;8.32;4.80;;;;;;;14.64;100.00;63508.06;5124126;27;20203;-76
2023/06/02 00:58:13;;;;;;;6.55;5.03;;;;;;;14.60;100.00;63507.00;5116968;28;20265;-74
2023/06/02 01:00:42;;;;;;;6.40;5.70;;;;;;;14.54;100.00;63497.69;5109242;28;20227;-75
2023/06/02 01:03:13;;;;;;;5.57;4.78;;;;;;;14.59;100.00;63502.88;5114340;28;20203;-76
2023/06/02 01:05:44;;;;;;;6.25;5.18;;;;;;;14.58;100.00;63506.97;5125534;28;20270;-76
2023/06/02 01:08:14;;;;;;;5.70;4.90;;;;;;;14.56;100.00;63499.78;5111514;28;20228;-77
2023/06/02 01:10:42;;;;;;;5.70;5.20;;;;;;;14.63;100.00;63509.59;5106570;28;20248;-76
2023/06/02 01:13:09;;;;;;;6.35;5.03;;;;;;;14.59;100.00;63503.41;5105321;28;20271;-77
2023/06/02 01:15:36;;;;;;;5.68;5.18;;;;;;;14.62;100.00;63513.69;5107292;28;20219;-76
2023/06/02 01:18:09;;;;;;;6.57;5.40;;;;;;;14.57;100.00;63503.38;5108095;28;20222;-76
2023/06/02 01:20:40;;;;;;;5.38;4.88;;;;;;;14.59;100.00;63505.97;5106508;28;20184;-77
2023/06/02 01:23:16;;;;;;;8.25;5.18;;;;;;;14.58;100.00;63510.03;5114081;28;20219;-77
2023/06/02 01:25:46;;;;;;;5.38;4.88;;;;;;;14.57;100.00;63501.31;5124438;27;20202;-75
2023/06/02 01:28:14;;;;;;;5.60;4.55;;;;;;;14.56;100.00;63499.78;5126043;28;20224;-76
2023/06/02 01:30:41;;;;;;;5.43;4.93;;;;;;;14.57;100.00;63503.38;5126216;28;20218;-75
2023/06/02 01:33:17;;;;;;;5.65;4.88;;;;;;;14.54;100.00;63500.25;5125080;27;20287;-75
2023/06/02 01:35:47;;;;;;;5.78;5.30;;;;;;;14.54;100.00;63500.25;5123702;28;20375;-76
2023/06/02 01:38:17;;;;;;;5.88;5.32;;;;;;;14.53;100.00;63499.72;5125970;28;20215;-75
2023/06/02 01:40:47;;;;;;;5.82;4.88;;;;;;;14.58;100.00;63510.03;5118585;28;20336;-75
2023/06/02 01:43:15;;;;;;;6.70;5.10;;;;;;;14.59;100.00;63505.97;5110102;28;20220;-75
2023/06/02 01:45:43;;;;;;;6.15;5.55;;;;;;;14.60;100.00;63498.81;5125866;27;20384;-75
2023/06/02 01:48:10;;;;;;;5.95;5.22;;;;;;;14.59;100.00;63505.44;5126222;28;20211;-75
2023/06/02 01:50:38;;;;;;;7.10;5.53;;;;;;;14.58;100.00;63499.78;5110195;28;20199;-75
2023/06/02 01:53:05;;;;;;;8.13;5.30;;;;;;;14.65;100.00;63512.19;5104825;28;20578;-76
2023/06/02 01:55:33;;;;;;;4.68;4.35;;;;;;;14.68;100.00;63512.75;5105294;28;20192;-76
2023/06/02 01:58:03;;;;;;;5.30;4.88;;;;;;;14.70;100.00;63522.50;5104362;28;20578;-76
2023/06/02 02:00:30;;;;;;;4.38;4.03;;;;;;;14.70;100.00;63517.38;5119252;28;20191;-76
2023/06/02 02:02:58;;;;;;;5.50;5.00;;;;;;;14.74;100.00;63521.03;5113113;28;20234;-75
2023/06/02 02:05:25;;;;;;;8.75;4.82;;;;;;;14.70;100.00;63517.38;5126348;28;20312;-77
2023/06/02 02:07:52;;;;;;;7.32;5.10;;;;;;;14.74;100.00;63516.41;5115756;28;20253;-77
2023/06/02 02:10:19;;;;;;;4.95;4.47;;;;;;;14.70;100.00;63516.88;5112690;28;20250;-76
2023/06/02 02:12:47;;;;;;;5.00;4.70;;;;;;;14.72;100.00;63516.41;5108520;28;20227;-76
2023/06/02 02:15:17;;;;;;;6.47;4.68;;;;;;;14.76;100.00;63528.75;5106040;28;20460;-77
2023/06/02 02:17:47;;;;;;;5.15;4.80;;;;;;;14.74;100.00;63521.53;5111002;28;20233;-76
2023/06/02 02:20:17;;;;;;;5.80;5.25;;;;;;;14.67;100.00;63511.19;5104780;28;20200;-77
2023/06/02 02:22:45;;;;;;;4.97;4.57;;;;;;;14.64;100.00;63511.16;5105752;28;20438;-75
2023/06/02 02:25:12;;;;;;;5.00;4.45;;;;;;;14.67;100.00;63514.28;5104184;28;20200;-76
2023/06/02 02:27:39;;;;;;;6.82;4.65;;;;;;;14.67;100.00;63516.31;5104691;28;20543;-75
2023/06/02 02:30:08;;;;;;;8.65;4.88;;;;;;;14.70;100.00;63514.81;5111611;28;20200;-76
2023/06/02 02:32:41;;;;;;;7.70;4.22;;;;;;;14.67;100.00;63511.19;5121572;28;20215;-75
2023/06/02 02:35:09;;;;;;;6.18;4.35;;;;;;;14.66;100.00;63515.81;5125071;28;20199;-79
2023/06/02 02:37:37;;;;;;;5.63;4.57;;;;;;;14.67;100.00;63514.28;5124826;28;20240;-75
2023/06/02 02:40:05;;;;;;;6.78;4.65;;;;;;;14.63;100.00;63509.59;5123091;28;20486;-76
2023/06/02 02:42:33;;;;;;;4.90;4.60;;;;;;;14.68;100.00;63514.81;5125542;28;20255;-76
2023/06/02 02:45:00;;;;;;;8.25;4.70;;;;;;;14.68;100.00;63512.75;5123074;28;20195;-76
2023/06/02 02:47:27;;;;;;;5.55;4.95;;;;;;;14.70;100.00;63514.81;5124545;28;20215;-77
2023/06/02 02:49:56;;;;;;;7.50;5.07;;;;;;;14.70;100.00;63514.31;5118379;28;20196;-76
2023/06/02 02:52:23;;;;;;;5.50;4.88;;;;;;;14.70;100.00;63519.94;5108014;28;20404;-77
2023/06/02 02:54:50;;;;;;;5.32;4.90;;;;;;;14.73;100.00;63523.09;5125204;28;20416;-77
2023/06/02 02:57:17;;;;;;;6.40;5.03;;;;;;;14.70;100.00;63511.75;5122667;28;20224;-76
2023/06/02 02:59:44;;;;;;;5.25;4.85;;;;;;;14.70;100.00;63514.31;5104568;28;20203;-77
2023/06/02 03:02:12;;;;;;;5.50;5.03;;;;;;;14.73;100.00;63517.94;5112034;28;20249;-76
2023/06/02 03:04:41;;;;;;;5.47;4.55;;;;;;;14.76;100.00;63521.06;5125291;28;20195;-76
2023/06/02 03:07:09;;;;;;;5.65;5.13;;;;;;;14.72;100.00;63518.97;5123140;28;20230;-77
2023/06/02 03:09:36;;;;;;;5.32;4.93;;;;;;;14.74;100.00;63518.97;5133872;28;20219;-76
2023/06/02 03:12:03;;;;;;;5.32;4.80;;;;;;;14.76;100.00;63528.75;5128403;28;20397;-77
2023/06/02 03:14:30;;;;;;;6.60;4.47;;;;;;;14.74;100.00;63518.47;5129622;28;20199;-77
2023/06/02 03:16:57;;;;;;;13.02;4.93;;;;;;;14.78;100.00;63530.84;5122413;28;20218;-76
2023/06/02 03:19:26;;;;;;;4.68;4.38;;;;;;;14.83;100.00;63532.94;5126082;28;20452;-76
2023/06/02 03:21:56;;;;;;;4.85;4.40;;;;;;;14.77;100.00;63527.22;5107734;28;20303;-76
2023/06/02 03:24:25;;;;;;;5.55;5.13;;;;;;;14.84;100.00;63531.94;5107925;28;20211;-75
2023/06/02 03:26:55;;;;;;;5.78;5.13;;;;;;;14.88;100.00;63533.53;5110036;28;20215;-76
2023/06/02 03:29:22;;;;;;;5.15;4.72;;;;;;;14.94;100.00;63539.75;5114200;28;20375;-77
2023/06/02 03:31:52;;;;;;;5.45;4.75;;;;;;;15.02;100.00;63547.56;5128566;27;20211;-76
2023/06/02 03:34:20;;;;;;;5.13;4.60;;;;;;;15.02;100.00;63550.66;5107431;28;20219;-77
2023/06/02 03:36:48;;;;;;;4.97;4.63;;;;;;;15.00;100.00;63551.13;5108626;28;20409;-76
2023/06/02 03:39:15;;;;;;;6.93;4.88;;;;;;;15.03;100.00;63549.13;5126904;28;20224;-77
2023/06/02 03:41:43;;;;;;;7.55;5.45;;;;;;;15.12;100.00;63557.44;5125909;28;20230;-77
2023/06/02 03:44:10;;;;;;;5.43;4.93;;;;;;;15.14;100.00;63562.06;5131949;28;20195;-76
2023/06/02 03:46:37;;;;;;;6.25;5.57;;;;;;;15.16;100.00;63562.09;5127001;28;20219;-76
2023/06/02 03:49:04;;;;;;;6.45;5.00;;;;;;;15.26;100.00;63574.53;5128396;28;20221;-76
2023/06/02 03:51:31;;;;;;;5.55;4.80;;;;;;;15.35;100.00;63586.47;5116140;28;20279;-76
2023/06/02 03:53:58;;;;;;;5.18;4.78;;;;;;;15.48;100.00;63597.44;5107950;28;20233;-76
2023/06/02 03:56:26;;;;;;;5.78;5.22;;;;;;;15.54;100.00;63604.19;5107452;28;20557;-77
2023/06/02 03:58:54;;;;;;;6.30;5.20;;;;;;;15.64;100.00;63614.59;5108003;28;20508;-76
2023/06/02 04:01:23;;;;;;;5.25;4.78;;;;;;;15.73;100.00;63620.84;5110660;28;20429;-77
2023/06/02 04:03:50;;;;;;;5.07;4.68;;;;;;;15.81;100.00;63632.25;5111208;28;20387;-76
2023/06/02 04:06:17;;;;;;;5.05;4.65;;;;;;;15.89;100.00;63638.00;5107287;28;20551;-76
2023/06/02 04:08:45;;;;;;;5.32;4.93;;;;;;;15.99;100.00;63647.88;5107302;28;20230;-77
2023/06/02 04:11:12;;;;;;;5.63;5.07;;;;;;;16.11;100.00;63666.03;5107436;28;20471;-77
2023/06/02 04:13:39;;;;;;;9.13;5.50;;;;;;;16.15;100.00;63667.09;5110354;28;20210;-76
2023/06/02 04:16:08;;;;;;;5.55;5.03;;;;;;;16.20;100.00;63670.22;5128700;28;20263;-75
2023/06/02 04:18:38;;;;;;;5.43;4.95;;;;;;;16.32;100.00;63686.81;5121566;28;20213;-77
2023/06/02 04:21:05;;;;;;;5.25;4.78;;;;;;;16.36;100.00;63686.34;5108932;28;20269;-78
2023/06/02 04:23:32;;;;;;;6.05;5.38;;;;;;;16.46;100.00;63703.97;5116613;28;20226;-77
2023/06/02 04:25:59;;;;;;;7.97;6.85;;;;;;;16.35;100.00;63687.38;5129534;28;20532;-78
2023/06/02 04:28:27;;;;;;;8.38;7.10;;;;;;;16.46;100.00;63696.78;5126243;28;20210;-78
2023/06/02 04:30:54;;;;;;;7.97;7.18;;;;;;;16.40;100.00;63690.00;5128080;28;20384;-77
2023/06/02 04:33:23;;;;;;;17.13;8.63;;;;;;;16.38;100.00;63693.59;5125289;28;20198;-77
2023/06/02 04:35:50;;;;;;;7.22;6.53;;;;;;;16.39;100.00;63686.91;5106548;28;20192;-78
2023/06/02 04:38:17;;;;;;;9.90;6.53;;;;;;;16.33;100.00;63690.94;5126881;28;20214;-77
2023/06/02 04:40:44;;;;;;;8.07;6.60;;;;;;;16.20;100.00;63672.81;5113800;28;20194;-76
2023/06/02 04:43:11;;;;;;;10.27;6.80;;;;;;;16.20;100.00;63675.38;5120156;28;20226;-76
2023/06/02 04:45:43;;;;;;;7.47;6.78;;;;;;;16.22;100.00;63673.84;5125721;28;20195;-77
2023/06/02 04:48:10;;;;;;;6.85;6.15;;;;;;;16.26;100.00;63681.09;5125621;28;20210;-77
2023/06/02 04:50:38;;;;;;;8.68;6.45;;;;;;;16.27;100.00;63677.00;5116571;28;20238;-76
2023/06/02 04:53:05;;;;;;;7.88;6.90;;;;;;;16.32;100.00;63684.78;5120747;28;20283;-78
2023/06/02 04:55:33;;;;;;;9.05;6.60;;;;;;;16.24;100.00;63681.59;5107658;28;20192;-76
2023/06/02 04:58:00;;;;;;;6.95;6.13;;;;;;;16.26;100.00;63680.56;5118016;28;20211;-77
2023/06/02 05:00:27;;;;;;;9.27;6.97;;;;;;;16.53;100.00;63703.56;5120868;28;20332;-78
2023/06/02 05:02:54;;;;;;;11.32;7.05;;;;;;;16.42;100.00;63692.09;5117394;28;20226;-77
2023/06/02 05:05:21;;;;;;;10.07;6.97;;;;;;;16.40;100.00;63690.00;5126265;27;20190;-77
2023/06/02 05:07:51;;;;;;;5.82;5.38;;;;;;;16.50;100.00;63706.09;5122804;28;20211;-76
2023/06/02 05:10:18;;;;;;;7.45;6.07;;;;;;;16.60;100.00;63713.91;5119754;28;20210;-77
2023/06/02 05:12:47;;;;;;;14.38;6.97;;;;;;;16.57;100.00;63710.78;5124962;28;20214;-77
2023/06/02 05:15:14;;;;;;;9.63;6.82;;;;;;;16.64;100.00;63712.41;5125203;28;20210;-77
2023/06/02 05:17:43;;;;;;;9.02;7.13;;;;;;;16.65;100.00;63718.59;5117802;28;20271;-77
2023/06/02 05:20:11;;;;;;;12.32;7.28;;;;;;;16.67;100.00;63721.19;5123941;28;20190;-78
2023/06/02 05:22:38;;;;;;;6.93;6.25;;;;;;;16.72;100.00;63725.91;5106301;28;20270;-77
2023/06/02 05:25:08;;;;;;;16.45;7.55;;;;;;;16.82;100.00;63736.28;5115124;28;20187;-77
2023/06/02 05:27:35;;;;;;;7.80;6.22;;;;;;;17.04;100.00;63761.75;5119861;27;20288;-76
2023/06/02 05:30:02;;;;;;;8.20;6.32;;;;;;;17.08;100.00;63760.78;5124968;28;20205;-77
2023/06/02 05:32:30;;;;;;;11.95;7.68;;;;;;;17.02;100.00;63755.06;5125131;28;20213;-78
2023/06/02 05:34:57;;;;;;;8.63;7.70;;;;;;;17.09;100.00;63761.81;5107120;28;20441;-77
2023/06/02 05:37:24;;;;;;;8.25;7.50;;;;;;;17.29;100.00;63785.22;5108971;28;20230;-77
2023/06/02 05:39:52;;;;;;;9.82;7.35;;;;;;;17.49;100.00;63803.47;5119119;28;20398;-76
2023/06/02 05:42:21;;;;;;;11.32;7.07;;;;;;;17.43;100.00;63797.22;5110341;28;20230;-77
2023/06/02 05:44:47;;;;;;;7.63;6.93;;;;;;;17.64;100.00;63823.72;5119185;28;20211;-76
2023/06/02 05:47:15;;;;;;;8.45;6.80;;;;;;;17.71;100.00;63823.81;5116490;28;20211;-77
2023/06/02 05:49:42;;;;;;;7.55;6.45;;;;;;;17.74;100.00;63831.56;5122720;28;20261;-78
2023/06/02 05:52:09;;;;;;;9.95;6.90;;;;;;;17.74;100.00;63834.16;5125990;28;20428;-78
2023/06/02 05:54:36;;;;;;;6.50;6.00;;;;;;;18.01;100.00;63859.69;5122521;28;20191;-79
2023/06/02 05:57:03;;;;;;;11.45;6.18;;;;;;;18.24;100.00;63883.66;5120779;28;20546;-79
2023/06/02 05:59:31;;;;;;;8.98;5.72;;;;;;;18.26;100.00;63888.31;5112825;28;20207;-76
2023/06/02 06:01:58;;;;;;;9.30;6.47;;;;;;;18.38;100.00;63898.22;5121466;28;20263;-77
2023/06/02 06:04:25;;;;;;;7.07;6.05;;;;;;;18.40;100.00;63900.34;5122678;28;20209;-77
2023/06/02 06:06:52;;;;;;;7.53;6.32;;;;;;;18.32;100.00;63892.00;5121392;28;20376;-76
2023/06/02 06:09:19;;;;;;;6.82;6.13;;;;;;;18.28;100.00;63888.34;5127026;28;20198;-78
2023/06/02 06:11:46;;;;;;;6.82;6.22;;;;;;;18.31;100.00;63893.50;5127917;28;20223;-77
2023/06/02 06:14:13;;;;;;;7.93;6.43;;;;;;;18.38;100.00;63896.19;5127010;28;20550;-77
2023/06/02 06:16:41;;;;;;;6.72;6.13;;;;;;;18.16;100.00;63870.69;5107126;28;20225;-78
2023/06/02 06:19:08;;;;;;;6.85;6.25;;;;;;;18.24;100.00;63886.75;5107012;28;20236;-77
2023/06/02 06:21:36;;;;;;;9.65;6.85;;;;;;;18.36;100.00;63898.75;5110119;28;20507;-77
2023/06/02 06:24:04;;;;;;;7.53;6.05;;;;;;;18.52;100.00;63910.25;5110111;28;20246;-78
2023/06/02 06:26:32;;;;;;;7.28;6.57;;;;;;;18.78;100.00;63942.00;5107382;28;20223;-77
2023/06/02 06:29:01;;;;;;;7.57;5.93;;;;;;;18.65;100.00;63928.97;5108368;28;20218;-79
2023/06/02 06:31:28;;;;;;;8.13;5.75;;;;;;;18.66;100.00;63927.44;5126685;28;20279;-77
2023/06/02 06:33:56;;;;;;;10.20;6.43;;;;;;;18.89;99.99;63951.41;5130362;28;20220;-78
2023/06/02 06:36:23;;;;;;;7.78;5.80;;;;;;;19.06;98.76;63969.13;5129374;28;20234;-78
2023/06/02 06:38:49;;;;;;;7.90;6.30;;;;;;;19.25;97.50;63991.00;5126968;28;20431;-78
2023/06/02 06:41:18;;;;;;;6.40;5.65;;;;;;;19.56;96.01;64025.94;5127433;28;20253;-78
2023/06/02 06:43:44;;;;;;;7.20;6.55;;;;;;;19.90;95.53;64058.28;5129157;28;20252;-78
2023/06/02 06:46:12;;;;;;;7.72;6.20;;;;;;;20.10;92.09;64074.00;5126515;28;20269;-78
2023/06/02 06:48:38;;;;;;;10.68;7.00;;;;;;;20.11;91.44;64080.19;5127350;28;20232;-79
2023/06/02 06:51:08;;;;;;;10.00;6.35;;;;;;;20.21;89.13;64091.19;5127295;28;20210;-79
2023/06/02 06:53:35;;;;;;;6.70;6.00;;;;;;;20.29;88.71;64101.59;5115235;28;20210;-77
2023/06/02 06:56:05;;;;;;;8.13;6.28;;;;;;;20.53;83.93;64129.25;5113481;28;20266;-79
2023/06/02 06:58:32;;;;;;;6.85;6.22;;;;;;;20.42;85.13;64113.09;5120038;28;20203;-77
2023/06/02 07:00:59;;;;;;;7.18;5.72;;;;;;;20.47;85.21;64117.78;5115266;28;20271;-79
2023/06/02 07:03:52;;;;;;;7.00;6.30;;;;;;;20.50;82.62;64123.53;5123621;28;20233;-78
2023/06/02 07:06:20;;;;;;;7.53;5.88;;;;;;;20.46;83.34;64117.28;5119857;28;20215;-78
2023/06/02 07:08:47;;;;;;;6.00;5.55;;;;;;;20.79;83.62;64151.19;5121593;28;20228;-80
2023/06/02 07:11:14;;;;;;;7.43;6.22;;;;;;;20.81;82.63;64150.72;5118919;28;20381;-77
2023/06/02 07:13:41;;;;;;;6.30;5.80;;;;;;;20.59;82.80;64132.91;5115181;28;20255;-77
2023/06/02 07:16:08;;;;;;;8.07;6.07;;;;;;;20.53;87.78;64119.41;5117252;28;20399;-79
2023/06/02 07:18:36;;;;;;;6.72;6.00;;;;;;;20.61;86.65;64130.34;5121878;28;20321;-80
2023/06/02 07:21:05;;;;;;;7.68;6.28;;;;;;;21.03;84.36;64173.69;5120870;28;20211;-79
2023/06/02 07:23:34;;;;;;;7.57;6.07;;;;;;;21.54;81.38;64223.84;5117066;28;20278;-77
2023/06/02 07:26:01;;;;;;;19.67;7.90;;;;;;;21.55;78.53;64228.00;5118044;28;20445;-78
2023/06/02 07:28:27;;;;;;;8.90;6.50;;;;;;;21.60;78.15;64235.28;5115518;28;20460;-78
2023/06/02 07:30:54;;;;;;;6.93;6.32;;;;;;;21.66;77.63;64241.56;5120665;28;20392;-79
2023/06/02 07:33:22;;;;;;;8.63;6.63;;;;;;;21.62;77.49;64234.78;5111973;28;20188;-78
2023/06/02 07:35:49;;;;;;;9.98;6.93;;;;;;;21.62;76.92;64237.91;5116655;28;20191;-78
2023/06/02 07:38:17;;;;;;;8.40;6.68;;;;;;;21.60;75.47;64238.41;5129479;28;20258;-79
2023/06/02 07:40:48;;;;;;;7.03;6.32;;;;;;;21.32;76.97;64201.38;5128595;28;20195;-79
2023/06/02 07:43:15;;;;;;;6.97;6.00;;;;;;;21.21;78.71;64192.47;5129245;28;20230;-79
2023/06/02 07:45:42;;;;;;;8.98;6.53;;;;;;;21.05;78.73;64178.38;5128344;28;20435;-79
2023/06/02 07:48:09;;;;;;;9.05;6.20;;;;;;;20.91;81.47;64158.56;5127231;28;20527;-79
2023/06/02 07:50:35;;;;;;;7.50;6.65;;;;;;;21.17;79.64;64192.97;5110271;28;20387;-80
2023/06/02 07:53:04;;;;;;;10.73;7.32;;;;;;;21.53;75.14;64223.31;5108189;28;20535;-80
2023/06/02 07:55:31;;;;;;;6.82;5.68;;;;;;;21.52;75.23;64224.34;5112252;28;20223;-79
2023/06/02 07:58:00;;;;;;;7.90;6.93;;;;;;;21.34;77.62;64203.47;5111189;28;20250;-79
2023/06/02 08:00:32;;;;;;;7.00;6.40;;;;;;;21.53;77.67;64227.97;5112717;28;20203;-79
2023/06/02 08:02:59;;;;;;;11.55;6.25;;;;;;;22.13;76.00;64287.56;5118895;28;20258;-80
2023/06/02 08:05:26;;;;;;;10.10;6.40;;;;;;;22.27;74.60;64299.59;5133045;28;20195;-79
2023/06/02 08:07:53;;;;;;;9.63;6.25;;;;;;;22.32;72.97;64305.34;5131708;28;20250;-81
2023/06/02 08:10:20;;;;;;;7.55;6.50;;;;;;;22.09;71.46;64281.31;5132423;28;20225;-79
2023/06/02 08:12:47;;;;;;;8.45;6.80;;;;;;;21.95;73.47;64271.88;5137192;28;20210;-80
2023/06/02 08:15:15;;;;;;;8.05;6.18;;;;;;;22.35;72.11;64310.56;5131681;28;20206;-80
2023/06/02 08:17:42;;;;;;;9.40;6.43;;;;;;;22.83;68.60;64360.78;5130813;28;20236;-80
2023/06/02 08:20:10;;;;;;;15.73;6.70;;;;;;;22.89;66.00;64372.75;5132102;27;20209;-78
2023/06/02 08:22:37;;;;;;;7.15;6.45;;;;;;;22.62;70.07;64338.81;5130153;28;20215;-80
2023/06/02 08:25:05;;;;;;;7.70;6.55;;;;;;;22.85;65.97;64365.97;5131731;28;20209;-80
2023/06/02 08:27:32;;;;;;;9.23;6.10;;;;;;;22.93;66.29;64371.75;5129970;28;20215;-79
2023/06/02 08:29:59;;;;;;;8.80;6.78;;;;;;;22.75;64.58;64352.94;5131095;28;20191;-78
2023/06/02 08:32:28;;;;;;;7.90;7.00;;;;;;;21.91;69.42;64264.59;5130671;28;20545;-80
2023/06/02 08:34:56;;;;;;;12.32;7.05;;;;;;;22.37;68.25;64315.25;5135569;28;20198;-80
2023/06/02 08:37:23;;;;;;;7.85;6.88;;;;;;;22.32;67.46;64307.44;5130540;28;20231;-79
2023/06/02 08:39:50;;;;;;;6.78;6.03;;;;;;;22.28;68.94;64305.84;5131197;28;20195;-80
2023/06/02 08:42:17;;;;;;;9.05;6.45;;;;;;;22.67;69.63;64344.03;5131869;28;20210;-80
2023/06/02 08:44:46;;;;;;;10.13;6.05;;;;;;;22.96;65.24;64379.03;5130155;28;20231;-80
2023/06/02 08:47:14;;;;;;;7.72;6.30;;;;;;;22.64;63.50;64340.91;5130136;28;20452;-80
2023/06/02 08:49:45;;;;;;;13.25;6.05;;;;;;;22.67;66.12;64344.56;5131407;28;20198;-80
2023/06/02 08:52:15;;;;;;;8.50;5.50;;;;;;;22.56;63.13;64333.06;5130139;28;20234;-78
2023/06/02 08:54:43;;;;;;;10.80;5.88;;;;;;;22.74;61.33;64351.38;5132022;28;20311;-79
2023/06/02 08:57:12;;;;;;;6.40;5.80;;;;;;;22.83;58.15;64361.28;5131657;28;20229;-82
2023/06/02 08:59:41;;;;;;;5.80;5.00;;;;;;;22.88;61.41;64366.00;5130972;28;20254;-78
2023/06/02 09:02:08;;;;;;;5.78;5.07;;;;;;;22.94;59.09;64377.47;5130361;28;20228;-81
2023/06/02 09:04:36;;;;;;;5.32;4.82;;;;;;;22.88;58.35;64366.50;5130557;28;20240;-82
2023/06/02 09:07:23;;;;;;;6.35;4.78;;;;;;;22.67;59.55;64344.03;5132378;28;20214;-79
2023/06/02 09:09:52;;;;;;;6.50;4.70;;;;;;;22.80;54.65;64360.75;5131553;28;20198;-79
2023/06/02 09:12:20;;;;;;;7.18;5.10;;;;;;;22.87;54.46;64367.53;5128711;28;20214;-78
2023/06/02 09:14:49;;;;;;;6.43;4.88;;;;;;;23.04;55.86;64384.81;5129169;28;20504;-79
2023/06/02 09:17:27;;;;;;;5.05;4.55;;;;;;;23.28;53.30;64409.94;5130238;28;20214;-78
2023/06/02 09:19:58;;;;;;;5.80;5.05;;;;;;;23.05;53.07;64391.56;5129570;28;20258;-79
2023/06/02 09:22:27;;;;;;;6.43;5.82;;;;;;;22.62;55.86;64341.91;5125819;28;20211;-79
2023/06/02 09:24:56;;;;;;;5.85;5.15;;;;;;;22.47;57.01;64325.69;5116502;28;20215;-80
2023/06/02 09:27:26;;;;;;;5.68;5.18;;;;;;;22.43;57.18;64322.06;5115986;28;20250;-78
2023/06/02 09:29:59;;;;;;;8.65;5.25;;;;;;;22.83;56.86;64363.38;5119063;28;20186;-81
2023/06/02 09:32:26;;;;;;;6.70;5.38;;;;;;;23.21;57.68;64400.00;5117847;28;20211;-79
2023/06/02 09:34:54;;;;;;;6.07;5.35;;;;;;;23.36;56.93;64418.81;5116288;28;20210;-80
2023/06/02 09:37:23;;;;;;;4.47;4.18;;;;;;;23.57;53.71;64440.28;5117780;28;20212;-82
2023/06/02 09:39:53;;;;;;;4.53;4.10;;;;;;;23.79;51.33;64460.69;5110195;28;20460;-81
2023/06/02 09:42:21;;;;;;;5.47;4.13;;;;;;;24.04;48.63;64489.47;5115463;28;20218;-79
2023/06/02 09:45:05;;;;;;;4.13;3.83;;;;;;;24.07;46.88;64492.63;5127243;28;20231;-81
2023/06/02 09:47:37;;;;;;;5.18;4.20;;;;;;;24.14;47.12;64496.81;5126262;28;20230;-79
2023/06/02 09:50:06;;;;;;;4.10;3.83;;;;;;;24.09;49.23;64489.50;5121855;28;20236;-81
2023/06/02 09:52:33;;;;;;;4.40;4.05;;;;;;;24.09;47.79;64492.09;5119313;28;20214;-79
2023/06/02 09:55:03;;;;;;;5.05;4.47;;;;;;;24.00;47.84;64488.41;5119977;28;20440;-78
2023/06/02 09:57:31;;;;;;;6.50;4.60;;;;;;;24.04;49.56;64486.84;5111037;28;20219;-79
2023/06/02 10:00:01;;;;;;;3.83;3.63;;;;;;;24.08;51.33;64488.44;5122228;28;20190;-78
2023/06/02 10:02:28;;;;;;;9.10;4.63;;;;;;;24.42;50.71;64526.63;5122192;28;20216;-78
2023/06/02 10:04:56;;;;;;;5.10;4.60;;;;;;;24.77;48.88;64562.78;5124818;28;20229;-81
2023/06/02 10:07:37;;;;;;;4.47;4.18;;;;;;;24.31;45.13;64519.81;5113897;28;20217;-79
2023/06/02 10:10:23;;;;;;;6.93;4.10;;;;;;;24.43;44.62;64527.16;5121129;28;20191;-79
2023/06/02 10:13:30;;;;;;;4.50;4.03;;;;;;;24.37;46.53;64526.63;5109412;28;20445;-80
2023/06/02 10:16:13;;;;;;;4.32;3.92;;;;;;;24.72;47.81;64557.53;5096942;28;20226;-78
2023/06/02 10:19:14;;;;;;;6.80;4.38;;;;;;;24.91;46.43;64580.06;5111371;28;20203;-79
2023/06/02 10:21:55;;;;;;;4.03;3.72;;;;;;;25.13;48.12;64606.22;5107709;28;20225;-81
2023/06/02 10:24:31;;;;;;;4.38;4.07;;;;;;;25.36;46.25;64629.28;5116529;28;20223;-79
2023/06/02 10:27:17;;;;;;;4.82;4.38;;;;;;;25.56;45.99;64645.56;5126683;28;20222;-80
2023/06/02 10:29:45;;;;;;;4.55;4.00;;;;;;;25.96;42.95;64689.56;5113960;28;20191;-79
2023/06/02 10:32:23;;;;;;;4.65;4.05;;;;;;;26.10;42.80;64701.66;5122129;28;20261;-78
2023/06/02 10:34:51;;;;;;;5.03;4.63;;;;;;;26.34;45.11;64726.28;5114714;28;20191;-80
2023/06/02 10:37:20;;;;;;;4.20;3.88;;;;;;;26.43;43.49;64741.47;5111430;28;20552;-80
2023/06/02 10:39:52;;;;;;;4.85;4.35;;;;;;;26.75;44.26;64772.44;5115116;28;20191;-80
2023/06/02 10:42:22;;;;;;;5.15;4.75;;;;;;;26.41;44.31;64736.75;5107165;28;20279;-79
2023/06/02 10:44:51;;;;;;;4.82;4.40;;;;;;;26.23;46.80;64719.97;5108357;28;20223;-80
2023/06/02 10:47:37;;;;;;;4.72;4.43;;;;;;;25.97;45.98;64685.41;5106518;28;20210;-79
2023/06/02 10:50:09;;;;;;;6.50;4.53;;;;;;;26.00;46.77;64694.28;5132140;22;20232;-79
2023/06/02 10:53:17;;;;;;;5.50;4.50;;;;;;;26.23;47.16;64720.50;5085404;28;20215;-78
2023/06/02 10:55:44;;;;;;;5.22;4.72;;;;;;;26.06;48.06;64697.97;5081072;28;20196;-80
2023/06/02 10:58:13;;;;;;;4.72;4.28;;;;;;;26.10;48.12;64707.41;5086995;28;20246;-80
2023/06/02 11:00:49;;;;;;;5.20;4.68;;;;;;;26.43;48.34;64740.94;5086429;28;20211;-78
2023/06/02 11:03:34;;;;;;;6.50;4.55;;;;;;;27.05;47.84;64801.28;5078568;28;20203;-78
2023/06/02 11:06:21;;;;;;;5.18;4.45;;;;;;;27.20;46.02;64819.09;5064871;28;20197;-78
2023/06/02 11:08:51;;;;;;;4.38;4.00;;;;;;;27.48;44.59;64851.13;5066308;28;20342;-78
2023/06/02 11:11:51;;;;;;;8.95;4.45;;;;;;;27.36;42.58;64832.78;5079434;28;20208;-77
2023/06/02 11:14:20;;;;;;;4.68;4.28;;;;;;;27.02;43.23;64797.63;5085753;28;20196;-77
2023/06/02 11:16:47;;;;;;;4.40;4.10;;;;;;;26.65;44.71;64761.41;5085863;28;20567;-78
2023/06/02 11:19:50;;;;;;;5.25;3.80;;;;;;;26.66;42.68;64765.56;5086912;28;20206;-77
2023/06/02 11:22:21;;;;;;;5.10;4.57;;;;;;;26.46;41.73;64736.78;5088028;28;20229;-77
2023/06/02 11:24:54;;;;;;;4.50;4.20;;;;;;;26.90;40.76;64788.19;5086870;28;20243;-78
2023/06/02 11:27:34;;;;;;;4.35;4.05;;;;;;;26.90;41.59;64785.03;5089294;28;20212;-78
2023/06/02 11:30:10;;;;;;;4.55;4.10;;;;;;;26.80;41.26;64779.78;5084747;28;20187;-78
2023/06/02 11:32:37;;;;;;;4.93;4.40;;;;;;;27.19;43.64;64821.22;5089471;28;20215;-78
2023/06/02 11:35:07;;;;;;;5.95;4.10;;;;;;;27.49;42.65;64849.53;5090764;28;20488;-78
2023/06/02 11:37:36;;;;;;;4.82;4.50;;;;;;;26.79;42.17;64773.47;5091471;28;20227;-78
2023/06/02 11:40:05;;;;;;;4.88;4.43;;;;;;;26.12;41.00;64711.59;5090055;28;20196;-78